createdAt,value
2019-04-02T00:00:20.597Z,12.93
2019-04-02T00:02:50.215Z,12.81
2019-04-02T00:05:19.877Z,12.73
2019-04-02T00:07:49.863Z,12.81
2019-04-02T00:10:19.741Z,12.97
2019-04-02T00:12:50.218Z,13.17
2019-04-02T00:15:20.194Z,13.29
2019-04-02T00:17:49.857Z,13.13
2019-04-02T00:20:19.490Z,13.10
2019-04-02T00:22:49.078Z,13.16
2019-04-02T00:25:18.702Z,12.99
2019-04-02T00:27:49.367Z,13.00
2019-04-02T00:30:19.737Z,12.88
2019-04-02T00:32:49.300Z,12.74
2019-04-02T00:35:18.901Z,12.75
2019-04-02T00:37:48.498Z,12.72
2019-04-02T00:40:18.098Z,12.51
2019-04-02T00:42:47.731Z,12.33
2019-04-02T00:45:17.641Z,12.28
2019-04-02T00:47:47.474Z,12.19
2019-04-02T00:50:17.692Z,12.25
2019-04-02T00:52:47.315Z,12.25
2019-04-02T00:55:16.994Z,12.12
2019-04-02T00:57:46.578Z,12.09
2019-04-02T01:00:16.320Z,12.14
2019-04-02T01:02:47.030Z,12.08
2019-04-02T01:05:16.651Z,12.16
2019-04-02T01:07:46.256Z,12.28
2019-04-02T01:10:16.044Z,12.19
2019-04-02T01:12:45.670Z,12.28
2019-04-02T01:15:16.129Z,12.07
2019-04-02T01:17:45.800Z,12.13
2019-04-02T01:20:15.714Z,12.03
2019-04-02T01:22:45.466Z,12.10
2019-04-02T01:25:15.051Z,12.09
2019-04-02T01:27:44.736Z,12.14
2019-04-02T01:30:14.565Z,12.21
2019-04-02T01:32:44.248Z,12.11
2019-04-02T01:35:13.957Z,12.16
2019-04-02T01:37:43.579Z,11.87
2019-04-02T01:40:13.404Z,11.83
2019-04-02T01:42:42.992Z,11.43
2019-04-02T01:45:12.759Z,11.14
2019-04-02T01:47:44.159Z,11.49
2019-04-02T01:50:14.147Z,11.57
2019-04-02T01:52:43.921Z,11.48
2019-04-02T01:55:13.813Z,11.70
2019-04-02T01:57:43.431Z,11.59
2019-04-02T02:00:15.383Z,11.92
2019-04-02T02:02:45.395Z,12.04
2019-04-02T02:05:15.266Z,11.78
2019-04-02T02:07:45.027Z,11.70
2019-04-02T02:10:15.008Z,11.75
2019-04-02T02:12:44.581Z,11.77
2019-04-02T02:15:14.198Z,11.88
2019-04-02T02:17:43.953Z,11.67
2019-04-02T02:20:14.035Z,11.58
2019-04-02T02:22:43.663Z,11.71
2019-04-02T02:25:13.563Z,11.41
2019-04-02T02:27:43.258Z,11.14
2019-04-02T02:30:18.643Z,11.18
2019-04-02T02:32:48.415Z,11.22
2019-04-02T02:35:18.049Z,11.30
2019-04-02T02:37:47.732Z,11.37
2019-04-02T02:40:53.009Z,11.42
2019-04-02T02:43:22.729Z,11.40
2019-04-02T02:45:52.359Z,11.57
2019-04-02T02:48:22.053Z,11.56
2019-04-02T02:50:51.728Z,11.51
2019-04-02T02:53:21.362Z,11.63
2019-04-02T02:55:52.699Z,11.83
2019-04-02T02:58:24.976Z,11.84
2019-04-02T03:00:57.308Z,11.86
2019-04-02T03:03:25.659Z,11.73
2019-04-02T03:05:55.383Z,11.72
2019-04-02T03:08:25.167Z,11.68
2019-04-02T03:10:54.755Z,11.71
2019-04-02T03:13:24.925Z,11.71
2019-04-02T03:15:54.802Z,11.66
2019-04-02T03:18:24.512Z,11.51
2019-04-02T03:20:54.196Z,11.66
2019-04-02T03:23:23.818Z,11.68
2019-04-02T03:25:53.495Z,11.68
2019-04-02T03:28:24.228Z,11.86
2019-04-02T03:30:54.812Z,11.79
2019-04-02T03:33:24.671Z,11.82
2019-04-02T03:35:54.425Z,11.88
2019-04-02T03:38:24.172Z,11.84
2019-04-02T03:40:53.900Z,11.66
2019-04-02T03:43:23.589Z,11.71
2019-04-02T03:45:53.302Z,11.85
2019-04-02T03:48:22.923Z,11.85
2019-04-02T03:50:52.774Z,11.98
2019-04-02T03:53:24.008Z,11.63
2019-04-02T03:55:54.284Z,11.56
2019-04-02T03:58:24.533Z,11.49
2019-04-02T04:00:55.573Z,10.98
2019-04-02T04:03:25.713Z,10.71
2019-04-02T04:05:55.426Z,10.67
2019-04-02T04:08:25.103Z,10.79
2019-04-02T04:11:16.777Z,10.87
2019-04-02T04:13:46.375Z,10.93
2019-04-02T04:16:17.929Z,11.10
2019-04-02T04:18:49.282Z,11.32
2019-04-02T04:21:21.245Z,11.48
2019-04-02T04:23:50.300Z,11.21
2019-04-02T04:26:22.233Z,10.94
2019-04-02T04:28:51.280Z,10.86
2019-04-02T04:31:20.981Z,10.88
2019-04-02T04:33:50.591Z,10.89
2019-04-02T04:36:20.281Z,10.92
2019-04-02T04:38:49.958Z,10.73
2019-04-02T04:41:20.349Z,10.83
2019-04-02T04:43:50.813Z,11.06
2019-04-02T04:46:20.438Z,11.00
2019-04-02T04:48:50.071Z,11.03
2019-04-02T04:51:19.817Z,11.09
2019-04-02T04:53:49.515Z,11.08
2019-04-02T04:56:19.198Z,11.14
2019-04-02T04:58:48.778Z,11.27
2019-04-02T05:01:19.601Z,11.28
2019-04-02T05:04:25.217Z,11.30
2019-04-02T05:06:55.114Z,11.30
2019-04-02T05:09:24.856Z,10.77
2019-04-02T05:11:54.504Z,10.63
2019-04-02T05:14:24.167Z,10.62
2019-04-02T05:16:53.845Z,10.72
2019-04-02T05:19:23.547Z,10.87
2019-04-02T05:21:53.137Z,10.98
2019-04-02T05:24:22.789Z,11.09
2019-04-02T05:26:54.212Z,11.12
2019-04-02T05:29:23.989Z,11.06
2019-04-02T05:31:53.629Z,11.04
2019-04-02T05:34:23.260Z,10.94
2019-04-02T05:36:52.977Z,11.09
2019-04-02T05:39:22.575Z,11.29
2019-04-02T05:41:52.304Z,11.33
2019-04-02T05:44:22.067Z,11.22
2019-04-02T05:46:51.986Z,11.48
2019-04-02T05:49:21.702Z,11.38
2019-04-02T05:51:51.409Z,11.43
2019-04-02T05:54:21.153Z,11.21
2019-04-02T05:56:50.836Z,11.03
2019-04-02T05:59:20.452Z,11.26
2019-04-02T06:01:50.107Z,11.41
2019-04-02T06:04:19.821Z,11.61
2019-04-02T06:06:49.538Z,11.59
2019-04-02T06:09:19.194Z,11.91
2019-04-02T06:11:48.824Z,11.95
2019-04-02T06:14:18.525Z,12.01
2019-04-02T06:16:48.116Z,12.14
2019-04-02T06:19:17.740Z,12.36
2019-04-02T06:21:47.354Z,13.00
2019-04-02T06:24:17.044Z,13.26
2019-04-02T06:26:46.838Z,13.25
2019-04-02T06:29:16.496Z,13.86
2019-04-02T06:31:46.165Z,13.65
2019-04-02T06:34:15.814Z,14.23
2019-04-02T06:36:45.602Z,13.83
2019-04-02T06:39:16.429Z,13.89
2019-04-02T06:41:46.579Z,13.74
2019-04-02T06:44:16.215Z,14.19
2019-04-02T06:46:45.826Z,13.74
2019-04-02T06:49:25.012Z,14.22
2019-04-02T06:51:55.295Z,14.35
2019-04-02T06:54:25.389Z,14.70
2019-04-02T06:56:55.803Z,15.27
2019-04-02T06:59:25.463Z,15.61
2019-04-02T07:01:55.047Z,16.34
2019-04-02T07:04:37.330Z,15.96
2019-04-02T07:06:55.959Z,15.88
2019-04-02T07:09:25.632Z,15.28
2019-04-02T07:11:55.235Z,15.47
2019-04-02T07:14:25.982Z,15.19
2019-04-02T07:16:56.280Z,15.18
2019-04-02T07:19:25.954Z,16.66
2019-04-02T07:21:55.619Z,16.49
2019-04-02T07:24:25.317Z,16.85
2019-04-02T07:26:54.973Z,17.00
2019-04-02T07:29:24.668Z,17.49
2019-04-02T07:31:54.274Z,16.92
2019-04-02T07:34:23.964Z,17.58
2019-04-02T07:36:53.564Z,17.85
2019-04-02T07:39:23.224Z,17.85
2019-04-02T07:41:52.911Z,17.75
2019-04-02T07:44:22.607Z,18.58
2019-04-02T07:46:52.232Z,18.16
2019-04-02T07:49:21.855Z,17.44
2019-04-02T07:51:54.288Z,17.51
2019-04-02T07:54:22.890Z,16.89
2019-04-02T07:56:52.472Z,17.39
2019-04-02T07:59:22.107Z,17.76
2019-04-02T08:01:51.704Z,17.62
2019-04-02T08:04:21.327Z,16.95
2019-04-02T08:06:50.958Z,17.64
2019-04-02T08:09:20.563Z,17.02
2019-04-02T08:11:50.325Z,18.07
2019-04-02T08:14:19.987Z,17.24
2019-04-02T08:16:49.603Z,16.44
2019-04-02T08:19:19.205Z,16.63
2019-04-02T08:21:49.019Z,17.88
2019-04-02T08:24:18.919Z,17.54
2019-04-02T08:26:48.601Z,17.39
2019-04-02T08:29:18.212Z,16.97
2019-04-02T08:31:47.824Z,17.50
2019-04-02T08:34:17.531Z,17.08
2019-04-02T08:36:47.558Z,16.67
2019-04-02T08:39:17.260Z,16.94
2019-04-02T08:41:46.931Z,16.88
2019-04-02T08:44:16.487Z,17.29
2019-04-02T08:46:47.471Z,17.24
2019-04-02T08:49:18.133Z,17.90
2019-04-02T08:51:48.905Z,17.05
2019-04-02T08:54:18.508Z,17.32
2019-04-02T08:56:56.071Z,17.26
2019-04-02T08:59:19.405Z,16.93
2019-04-02T09:01:49.026Z,17.65
2019-04-02T09:04:20.528Z,18.42
2019-04-02T09:06:49.977Z,17.98
2019-04-02T09:09:19.592Z,18.67
2019-04-02T09:11:49.172Z,18.83
2019-04-02T09:14:18.814Z,19.58
2019-04-02T09:16:49.253Z,19.69
2019-04-02T09:19:19.285Z,19.55
2019-04-02T09:21:48.933Z,20.00
2019-04-02T09:24:18.539Z,20.18
2019-04-02T09:26:55.624Z,20.81
2019-04-02T09:29:19.557Z,19.81
2019-04-02T09:31:49.149Z,19.26
2019-04-02T09:34:18.812Z,18.99
2019-04-02T09:36:48.434Z,19.14
2019-04-02T09:39:18.017Z,19.53
2019-04-02T09:41:47.613Z,18.78
2019-04-02T09:44:17.199Z,19.87
2019-04-02T09:46:46.872Z,19.60
2019-04-02T09:49:16.455Z,19.76
2019-04-02T09:51:46.075Z,20.15
2019-04-02T09:54:15.684Z,20.16
2019-04-02T09:56:45.393Z,19.57
2019-04-02T09:59:15.044Z,19.88
2019-04-02T10:01:45.576Z,20.02
2019-04-02T10:04:15.261Z,20.39
2019-04-02T10:06:44.904Z,20.64
2019-04-02T10:09:15.804Z,20.92
2019-04-02T10:11:45.556Z,20.25
2019-04-02T10:14:15.181Z,19.67
2019-04-02T10:16:44.920Z,19.69
2019-04-02T10:19:14.558Z,20.95
2019-04-02T10:21:44.203Z,21.21
2019-04-02T10:24:13.866Z,20.39
2019-04-02T10:26:43.505Z,19.44
2019-04-02T10:29:13.197Z,20.69
2019-04-02T10:31:42.958Z,19.86
2019-04-02T10:34:12.789Z,19.40
2019-04-02T10:36:42.429Z,19.12
2019-04-02T10:39:14.946Z,19.53
2019-04-02T10:41:44.651Z,20.38
2019-04-02T10:44:14.349Z,20.48
2019-04-02T10:46:43.960Z,20.03
2019-04-02T10:49:13.560Z,19.89
2019-04-02T10:51:43.224Z,19.78
2019-04-02T10:54:12.795Z,20.18
2019-04-02T10:56:42.409Z,20.36
2019-04-02T10:59:13.005Z,19.85
2019-04-02T11:01:42.653Z,20.65
2019-04-02T11:04:12.304Z,20.98
2019-04-02T11:06:41.875Z,21.17
2019-04-02T11:09:12.616Z,21.15
2019-04-02T11:11:42.213Z,21.78
2019-04-02T11:14:12.787Z,20.36
2019-04-02T11:16:42.735Z,21.37
2019-04-02T11:19:12.320Z,21.99
2019-04-02T11:21:41.928Z,21.91
2019-04-02T11:24:11.552Z,22.11
2019-04-02T11:26:41.160Z,20.50
2019-04-02T11:29:10.801Z,21.90
2019-04-02T11:31:40.410Z,20.61
2019-04-02T11:34:10.003Z,20.84
2019-04-02T11:36:39.704Z,21.07
2019-04-02T11:39:09.874Z,20.50
2019-04-02T11:41:39.499Z,19.86
2019-04-02T11:44:09.052Z,20.23
2019-04-02T11:46:38.704Z,19.81
2019-04-02T11:49:08.375Z,19.81
2019-04-02T11:51:39.025Z,21.09
2019-04-02T11:54:19.243Z,21.66
2019-04-02T11:56:40.323Z,22.15
2019-04-02T11:59:09.914Z,21.16
2019-04-02T12:01:39.666Z,21.13
2019-04-02T12:04:10.884Z,21.87
2019-04-02T12:06:40.575Z,21.28
2019-04-02T12:09:12.259Z,20.88
2019-04-02T12:11:41.907Z,20.98
2019-04-02T12:14:11.522Z,21.50
2019-04-02T12:16:41.141Z,20.32
2019-04-02T12:19:13.212Z,21.43
2019-04-02T12:21:42.125Z,20.64
2019-04-02T12:24:11.966Z,21.49
2019-04-02T12:26:42.085Z,20.99
2019-04-02T12:29:11.692Z,21.66
2019-04-02T12:31:41.297Z,20.57
2019-04-02T12:34:11.237Z,20.41
2019-04-02T12:36:41.869Z,20.52
2019-04-02T12:39:12.682Z,20.57
2019-04-02T12:41:43.805Z,19.93
2019-04-02T12:44:13.756Z,21.35
2019-04-02T12:46:43.438Z,20.77
2019-04-02T12:49:13.019Z,21.44
2019-04-02T12:51:42.659Z,20.59
2019-04-02T12:54:12.940Z,20.81
2019-04-02T12:56:43.027Z,19.88
2019-04-02T12:59:12.651Z,19.93
2019-04-02T13:01:42.238Z,19.76
2019-04-02T13:04:11.795Z,19.81
2019-04-02T13:06:41.415Z,20.28
2019-04-02T13:09:11.008Z,20.13
2019-04-02T13:11:40.663Z,21.47
2019-04-02T13:14:10.274Z,19.76
2019-04-02T13:16:49.426Z,20.14
2019-04-02T13:19:11.288Z,20.55
2019-04-02T13:21:40.922Z,20.63
2019-04-02T13:24:21.459Z,20.35
2019-04-02T13:26:41.825Z,19.52
2019-04-02T13:29:11.403Z,19.24
2019-04-02T13:31:41.067Z,20.74
2019-04-02T13:34:10.693Z,20.14
2019-04-02T13:36:40.292Z,19.72
2019-04-02T13:39:09.897Z,20.59
2019-04-02T13:41:39.492Z,20.25
2019-04-02T13:44:09.155Z,19.27
2019-04-02T13:46:38.770Z,19.30
2019-04-02T13:49:08.541Z,19.39
2019-04-02T13:51:38.154Z,19.23
2019-04-02T13:54:07.746Z,20.41
2019-04-02T13:56:37.389Z,19.76
2019-04-02T13:59:06.979Z,19.20
2019-04-02T14:01:36.723Z,20.41
2019-04-02T14:04:06.465Z,20.24
2019-04-02T14:06:36.179Z,21.09
2019-04-02T14:09:09.195Z,20.52
2019-04-02T14:11:38.803Z,19.36
2019-04-02T14:14:08.375Z,19.28
2019-04-02T14:16:38.125Z,20.55
2019-04-02T14:19:07.755Z,20.12
2019-04-02T14:21:37.338Z,19.36
2019-04-02T14:24:06.931Z,20.26
2019-04-02T14:26:36.642Z,19.46
2019-04-02T14:29:07.151Z,20.04
2019-04-02T14:31:36.862Z,19.44
2019-04-02T14:34:06.445Z,19.27
2019-04-02T14:36:36.049Z,20.10
2019-04-02T14:39:08.822Z,20.46
2019-04-02T14:41:38.438Z,21.16
2019-04-02T14:44:08.128Z,20.14
2019-04-02T14:46:38.839Z,20.11
2019-04-02T14:49:08.936Z,19.34
2019-04-02T14:51:39.488Z,19.25
2019-04-02T14:54:09.533Z,18.70
2019-04-02T14:56:39.140Z,19.27
2019-04-02T14:59:08.811Z,19.66
2019-04-02T15:01:40.221Z,20.19
2019-04-02T15:04:09.945Z,18.74
2019-04-02T15:06:39.518Z,18.84
2019-04-02T15:09:09.649Z,18.34
2019-04-02T15:11:39.314Z,19.75
2019-04-02T15:14:08.944Z,19.19
2019-04-02T15:16:38.500Z,18.86
2019-04-02T15:19:08.147Z,18.37
2019-04-02T15:21:37.748Z,18.12
2019-04-02T15:24:07.937Z,18.22
2019-04-02T15:26:38.056Z,18.14
2019-04-02T15:29:07.717Z,18.37
2019-04-02T15:31:37.294Z,18.41
2019-04-02T15:34:06.894Z,18.29
2019-04-02T15:36:36.476Z,17.95
2019-04-02T15:39:08.118Z,17.71
2019-04-02T15:41:37.738Z,17.86
2019-04-02T15:44:07.355Z,17.80
2019-04-02T15:46:36.946Z,17.81
2019-04-02T15:49:06.584Z,17.40
2019-04-02T15:51:36.272Z,16.98
2019-04-02T15:54:05.883Z,17.37
2019-04-02T15:56:35.483Z,17.40
2019-04-02T15:59:05.191Z,17.90
2019-04-02T16:01:34.854Z,17.15
2019-04-02T16:04:04.682Z,16.70
2019-04-02T16:06:34.265Z,16.44
2019-04-02T16:09:04.985Z,15.71
2019-04-02T16:11:34.687Z,15.31
2019-04-02T16:14:04.369Z,15.98
2019-04-02T16:16:34.020Z,15.56
2019-04-02T16:19:03.638Z,15.19
2019-04-02T16:21:33.220Z,15.69
2019-04-02T16:24:02.859Z,14.97
2019-04-02T16:26:32.542Z,15.74
2019-04-02T16:29:02.268Z,15.78
2019-04-02T16:31:31.863Z,15.91
2019-04-02T16:34:01.458Z,15.99
2019-04-02T16:36:31.079Z,15.82
2019-04-02T16:39:00.705Z,15.84
2019-04-02T16:41:33.653Z,15.27
2019-04-02T16:44:03.278Z,15.36
2019-04-02T16:46:32.881Z,15.53
2019-04-02T16:49:02.519Z,15.00
2019-04-02T16:51:32.130Z,15.29
2019-04-02T16:54:01.721Z,14.66
2019-04-02T16:56:31.407Z,14.37
2019-04-02T16:59:01.008Z,14.22
2019-04-02T17:01:30.599Z,14.36
2019-04-02T17:04:00.189Z,14.29
2019-04-02T17:06:29.851Z,14.78
2019-04-02T17:09:00.023Z,15.10
2019-04-02T17:11:31.859Z,15.27
2019-04-02T17:14:01.097Z,15.85
2019-04-02T17:16:30.690Z,16.13
2019-04-02T17:19:00.315Z,15.53
2019-04-02T17:21:29.940Z,14.61
2019-04-02T17:23:59.529Z,14.25
2019-04-02T17:26:29.188Z,14.04
2019-04-02T17:29:00.674Z,14.08
2019-04-02T17:31:30.108Z,14.87
2019-04-02T17:33:59.748Z,14.41
2019-04-02T17:36:29.435Z,13.79
2019-04-02T17:38:59.047Z,13.64
2019-04-02T17:41:28.653Z,13.41
2019-04-02T17:43:58.258Z,13.17
2019-04-02T17:46:27.896Z,13.02
2019-04-02T17:48:57.856Z,13.08
2019-04-02T17:51:27.458Z,13.29
2019-04-02T17:53:57.130Z,13.37
2019-04-02T17:56:26.734Z,13.67
2019-04-02T17:58:56.372Z,13.44
2019-04-02T18:01:26.269Z,13.27
2019-04-02T18:03:55.842Z,13.09
2019-04-02T18:06:25.564Z,13.29
2019-04-02T18:08:55.826Z,13.29
2019-04-02T18:11:26.622Z,13.60
2019-04-02T18:13:56.245Z,13.53
2019-04-02T18:16:25.852Z,13.56
2019-04-02T18:18:55.467Z,14.14
2019-04-02T18:21:25.058Z,14.28
2019-04-02T18:23:54.668Z,13.95
2019-04-02T18:26:24.284Z,13.31
2019-04-02T18:28:54.262Z,13.01
2019-04-02T18:31:23.882Z,12.97
2019-04-02T18:33:53.489Z,12.92
2019-04-02T18:36:23.785Z,12.96
2019-04-02T18:38:53.580Z,12.87
2019-04-02T18:41:23.282Z,12.70
2019-04-02T18:43:52.867Z,13.02
2019-04-02T18:46:22.493Z,13.01
2019-04-02T18:48:52.094Z,12.79
2019-04-02T18:51:23.317Z,12.83
2019-04-02T18:53:53.283Z,12.77
2019-04-02T18:56:22.885Z,12.80
2019-04-02T18:58:52.516Z,13.25
2019-04-02T19:01:22.126Z,13.87
2019-04-02T19:03:51.760Z,13.88
2019-04-02T19:06:21.503Z,13.91
2019-04-02T19:08:51.097Z,13.15
2019-04-02T19:11:22.577Z,13.42
2019-04-02T19:13:53.902Z,13.33
2019-04-02T19:16:25.233Z,12.63
2019-04-02T19:18:54.667Z,12.92
2019-04-02T19:21:26.247Z,12.79
2019-04-02T19:23:56.248Z,12.81
2019-04-02T19:26:26.043Z,13.77
2019-04-02T19:28:55.704Z,14.01
2019-04-02T19:31:25.278Z,14.50
2019-04-02T19:33:54.861Z,15.03
2019-04-02T19:36:24.460Z,12.99
2019-04-02T19:38:54.134Z,12.29
2019-04-02T19:41:23.741Z,12.01
2019-04-02T19:43:54.193Z,11.80
2019-04-02T19:46:24.397Z,11.64
2019-04-02T19:48:54.012Z,11.60
2019-04-02T19:51:23.646Z,11.53
2019-04-02T19:53:53.236Z,12.94
2019-04-02T19:56:22.823Z,12.48
2019-04-02T19:58:53.123Z,13.47
2019-04-02T20:01:23.146Z,12.06
2019-04-02T20:03:52.772Z,11.69
2019-04-02T20:06:22.412Z,11.26
2019-04-02T20:08:52.001Z,10.93
2019-04-02T20:11:21.573Z,10.88
2019-04-02T20:13:51.198Z,10.66
2019-04-02T20:16:22.828Z,10.42
2019-04-02T20:18:52.543Z,10.16
2019-04-02T20:21:22.171Z,10.01
2019-04-02T20:23:51.768Z,9.85
2019-04-02T20:26:21.337Z,9.83
2019-04-02T20:28:50.990Z,9.78
2019-04-02T20:31:20.602Z,9.72
2019-04-02T20:33:53.277Z,9.61
2019-04-02T20:36:21.538Z,9.72
2019-04-02T20:38:51.119Z,9.70
2019-04-02T20:41:20.750Z,9.53
2019-04-02T20:43:50.339Z,9.52
2019-04-02T20:46:19.909Z,9.31
2019-04-02T20:48:49.585Z,9.35
2019-04-02T20:51:19.244Z,9.27
2019-04-02T20:53:49.082Z,9.16
2019-04-02T20:56:21.997Z,9.16
2019-04-02T20:58:52.206Z,9.11
2019-04-02T21:01:23.487Z,8.90
2019-04-02T21:03:53.399Z,8.73
2019-04-02T21:06:22.980Z,8.74
2019-04-02T21:08:52.568Z,8.66
2019-04-02T21:11:22.162Z,8.62
2019-04-02T21:13:51.799Z,8.90
2019-04-02T21:16:21.431Z,8.59
2019-04-02T21:18:51.015Z,9.09
2019-04-02T21:21:20.643Z,8.79
2019-04-02T21:23:50.289Z,8.96
2019-04-02T21:26:20.287Z,8.64
2019-04-02T21:28:50.232Z,8.81
2019-04-02T21:31:19.919Z,8.70
2019-04-02T21:33:49.558Z,8.55
2019-04-02T21:36:19.140Z,8.57
2019-04-02T21:38:48.710Z,8.80
2019-04-02T21:41:18.329Z,9.05
2019-04-02T21:43:47.930Z,9.01
2019-04-02T21:46:17.568Z,9.08
2019-04-02T21:48:47.212Z,9.62
2019-04-02T21:51:16.835Z,9.25
2019-04-02T21:53:46.427Z,8.86
2019-04-02T21:56:16.015Z,8.66
2019-04-02T21:58:45.631Z,8.55
2019-04-02T22:01:15.403Z,8.39
2019-04-02T22:03:44.965Z,8.33
2019-04-02T22:06:14.620Z,8.27
2019-04-02T22:08:44.232Z,8.25
2019-04-02T22:11:13.808Z,8.05
2019-04-02T22:13:43.475Z,7.86
2019-04-02T22:16:13.351Z,7.68
2019-04-02T22:18:43.659Z,7.76
2019-04-02T22:21:13.751Z,7.76
2019-04-02T22:23:43.836Z,7.64
2019-04-02T22:26:13.917Z,7.62
2019-04-02T22:28:45.096Z,7.55
2019-04-02T22:31:17.309Z,7.70
2019-04-02T22:33:46.449Z,7.54
2019-04-02T22:36:16.121Z,7.62
2019-04-02T22:38:45.730Z,7.62
2019-04-02T22:41:15.462Z,7.46
2019-04-02T22:43:45.064Z,7.52
2019-04-02T22:46:14.661Z,7.46
2019-04-02T22:48:44.305Z,7.61
2019-04-02T22:51:13.899Z,7.59
2019-04-02T22:53:43.528Z,7.69
2019-04-02T22:56:13.123Z,7.79
2019-04-02T22:58:42.812Z,8.01
2019-04-02T23:01:12.593Z,8.39
2019-04-02T23:03:42.200Z,8.64
2019-04-02T23:06:11.782Z,8.60
2019-04-02T23:08:41.352Z,8.70
2019-04-02T23:11:11.015Z,8.47
2019-04-02T23:13:40.627Z,8.44
2019-04-02T23:16:24.702Z,8.37
2019-04-02T23:18:41.586Z,8.51
2019-04-02T23:21:11.169Z,8.60
2019-04-02T23:23:40.771Z,8.55
2019-04-02T23:26:10.411Z,8.19
2019-04-02T23:28:39.952Z,8.03
2019-04-02T23:31:09.535Z,7.74
2019-04-02T23:33:39.099Z,7.58
2019-04-02T23:36:08.681Z,7.59
2019-04-02T23:38:38.263Z,7.42
2019-04-02T23:41:07.876Z,7.19
2019-04-02T23:43:37.516Z,7.09
2019-04-02T23:46:07.101Z,7.01
2019-04-02T23:48:36.726Z,7.07
2019-04-02T23:51:06.357Z,7.03
2019-04-02T23:53:35.945Z,7.08
2019-04-02T23:56:05.810Z,7.01
2019-04-02T23:58:35.379Z,6.94
